Meteo Giornale » Osservazioni meteo Italia » Lamezia Terme

ore: 08:50 - Osservazioni Meteo Lamezia Terme
Lat. 38° 54' N Lon. 16° 15' E Alt. 15 metri s.l.m.

sereno Europe/Rome

10 °C

Sereno

Temp. 24 Ore

1 °C

14 °C

Ovest

13 Km/h

Dew point -3 °C

Umidità 39 %

Visibilità  10 Km

Il sole sorge alle ore 07:03

Il sole tramonta alle ore 17:11

Data e Ora Cielo e Fenomeni T °C DP °C Um. % Pres. hPa Vis. km Vento km/h
Oggi h: 08:50 sereno Sereno 10 -3 39 1017 10 O 13
Oggi h: 08:20 sereno Sereno 8 -3 45 1017 10 O 13
Oggi h: 07:50 sereno Sereno 7 -2 52 1017 10 O/SO 9.3
Oggi h: 07:20 sereno Sereno 7 -3 48 1017 10 SO 7.4
Oggi h: 06:50 sereno Sereno 7 -3 48 1017 10 SO 7.4
Oggi h: 06:20 sereno Sereno 5 -2 60 1016 10 N 5.5
Oggi h: 05:50 sereno Sereno 6 -2 56 1016 10 N 5.5
Oggi h: 05:20 sereno Sereno 7 -2 52 1016 10 O 13
Oggi h: 04:50 sereno Sereno 6 -2 56 1016 10 O 13
Oggi h: 04:20 sereno Sereno 6 -3 52 1016 10 O 14.8
Oggi h: 03:50 sereno Sereno 6 -2 56 1016 10 O 18.5
Oggi h: 03:20 sereno Sereno 5 -2 60 1016 10 O 16.7
Oggi h: 02:50 sereno Sereno 4 -2 64 1016 10 O 7.4
Oggi h: 02:20 sereno Sereno 1 -2 80 1016 10 E 9.3
Oggi h: 01:50 sereno Sereno 1 -2 80 1016 10 N 5.5
Oggi h: 01:20 sereno Sereno 3 -2 69 1016 10 N 5.5
Oggi h: 00:50 sereno Sereno 3 -2 69 1016 10 N 5.5
Oggi h: 00:20 sereno Sereno 2 -2 74 1015 10 N 3.7
Ieri h: 23:50 sereno Sereno 5 -3 56 1015 10 N 5.5
Ieri h: 23:20 sereno Sereno 6 -3 52 1015 10 O/SO 7.4
Ieri h: 22:50 sereno Sereno 4 -3 60 1015 10 N 3.7
Ieri h: 22:20 sereno Sereno 2 -2 74 1015 10 N 5.5
Ieri h: 21:50 sereno Sereno 5 -3 56 1015 10 N 3.7
Ieri h: 21:20 sereno Sereno 8 -6 36 1014 10 N 5.5
Ieri h: 20:50 sereno Sereno 6 -5 45 1014 10 O 7.4
Ieri h: 20:20 sereno Sereno 6 -5 45 1014 10 N 3.7
Ieri h: 19:50 sereno Sereno 8 -5 39 1014 10 N 9.3
Ieri h: 19:20 sereno Sereno 8 -4 42 1013 10 N 9.3
Ieri h: 18:50 sereno Sereno 9 -2 45 1013 10 N/NO 9.3
Ieri h: 18:20 sereno Sereno 9 -2 45 1012 10 NO 13
Ieri h: 17:50 sereno Sereno 9 -1 49 1011 10 N 13
Ieri h: 17:20 poco_nuvoloso Poco Nuvoloso 10 -1 46 1011 10 N 14.8
Ieri h: 16:50 nuvoloso Nuvoloso 11 -1 43 1010 10 N 22.2
Ieri h: 16:20 sereno Sereno 12 -3 34 1009 10 O/NO 29.6
Ieri h: 15:50 sereno Sereno 12 -0 43 1008 10 O/NO 29.6
Ieri h: 15:20 sereno Sereno 13 1 43 1008 10 O 29.6
Ieri h: 14:50 nuvoloso Nuvoloso 13 1 43 1008 10 O 29.6
Ieri h: 14:20 sereno Sereno 13 -2 35 1008 10 O 29.6
Ieri h: 13:50 nuvoloso Nuvoloso 13 1 43 1007 10 O 35.2
Ieri h: 13:20 poco_nuvoloso Poco Nuvoloso 14 5 54 1007 10 O/NO 31.5
Ieri h: 12:50 poco_nuvoloso Poco Nuvoloso 13 5 58 1007 10 O/NO 31.5
Ieri h: 12:20 poco_nuvoloso Poco Nuvoloso 13 6 62 1007 10 O/NO 31.5
Ieri h: 11:50 poco_nuvoloso Poco Nuvoloso 13 7 66 1007 10 O/NO 25.9
Ieri h: 11:20 nuvoloso Nuvoloso 13 7 66 1007 10 O/NO 24
Ieri h: 10:50 nuvoloso Nuvoloso 13 7 66 1007 10 O/NO 22.2
Ieri h: 10:20 molto_nuvoloso Molto Nuvoloso 13 9 76 1007 10 O 13
Ieri h: 09:50 coperto_pioggia Pioggia Debole 12 8 76 1007 10 O 16.7
Ieri h: 09:20 coperto Coperto 12 8 76 1007 10 O 14.8
Ieri h: 08:50 coperto_pioggia Pioggia Debole 12 7 71 1006 10 O/SO 11.1